createdAt,value
2018-02-19T00:00:21.194Z,22.83
2018-02-19T00:02:49.407Z,21.55
2018-02-19T00:05:17.081Z,21.33
2018-02-19T00:07:44.562Z,20.00
2018-02-19T00:10:11.990Z,22.42
2018-02-19T00:12:39.466Z,20.65
2018-02-19T00:15:06.922Z,20.23
2018-02-19T00:17:34.382Z,25.23
2018-02-19T00:20:01.839Z,20.60
2018-02-19T00:22:29.284Z,20.80
2018-02-19T00:24:56.749Z,19.62
2018-02-19T00:27:24.202Z,21.70
2018-02-19T00:29:51.667Z,19.92
2018-02-19T00:32:19.106Z,19.70
2018-02-19T00:34:46.662Z,24.33
2018-02-19T00:37:14.122Z,19.25
2018-02-19T00:39:41.572Z,20.80
2018-02-19T00:42:08.998Z,20.48
2018-02-19T00:44:36.435Z,19.62
2018-02-19T00:47:04.643Z,20.25
2018-02-19T00:49:32.101Z,20.23
2018-02-19T00:51:59.571Z,22.52
2018-02-19T00:54:27.042Z,22.62
2018-02-19T00:56:54.494Z,23.50
2018-02-19T00:59:21.954Z,19.67
2018-02-19T01:01:49.410Z,22.85
2018-02-19T01:04:16.856Z,24.45
2018-02-19T01:06:44.322Z,21.33
2018-02-19T01:09:11.764Z,21.35
2018-02-19T01:11:39.207Z,22.10
2018-02-19T01:14:06.646Z,20.77
2018-02-19T01:16:34.243Z,20.23
2018-02-19T01:19:01.695Z,21.75
2018-02-19T01:21:29.154Z,20.02
2018-02-19T01:23:56.688Z,20.42
2018-02-19T01:26:24.138Z,22.37
2018-02-19T01:28:51.567Z,20.77
2018-02-19T01:31:19.790Z,20.83
2018-02-19T01:33:47.229Z,21.40
2018-02-19T01:36:14.710Z,23.20
2018-02-19T01:38:42.174Z,21.60
2018-02-19T01:41:09.618Z,20.45
2018-02-19T01:43:37.060Z,23.27
2018-02-19T01:46:04.550Z,20.27
2018-02-19T01:48:31.994Z,22.80
2018-02-19T01:50:59.433Z,19.67
2018-02-19T01:53:26.886Z,20.73
2018-02-19T01:55:54.330Z,22.02
2018-02-19T01:58:21.863Z,21.12
2018-02-19T02:00:50.081Z,22.67
2018-02-19T02:03:17.537Z,24.37
2018-02-19T02:05:44.988Z,22.40
2018-02-19T02:08:12.425Z,21.42
2018-02-19T02:10:39.924Z,19.77
2018-02-19T02:13:07.368Z,20.08
2018-02-19T02:15:34.914Z,21.87
2018-02-19T02:18:02.348Z,19.75
2018-02-19T02:20:29.782Z,22.45
2018-02-19T02:22:58.024Z,21.20
2018-02-19T02:25:25.475Z,22.30
2018-02-19T02:27:52.906Z,21.17
2018-02-19T02:30:20.333Z,22.77
2018-02-19T02:32:48.540Z,20.87
2018-02-19T02:35:16.024Z,24.73
2018-02-19T02:37:43.467Z,20.70
2018-02-19T02:40:10.902Z,20.73
2018-02-19T02:42:38.381Z,21.85
2018-02-19T02:45:05.816Z,21.23
2018-02-19T02:47:33.262Z,22.98
2018-02-19T02:50:00.690Z,22.23
2018-02-19T02:52:28.907Z,22.08
2018-02-19T02:54:56.332Z,21.37
2018-02-19T02:57:24.576Z,21.52
2018-02-19T02:59:52.035Z,24.12
2018-02-19T03:02:19.573Z,23.30
2018-02-19T03:04:47.006Z,22.95
2018-02-19T03:07:14.437Z,23.92
2018-02-19T03:09:42.642Z,21.00
2018-02-19T03:12:10.111Z,23.05
2018-02-19T03:14:37.551Z,23.35
2018-02-19T03:17:04.985Z,23.15
2018-02-19T03:19:32.430Z,22.55
2018-02-19T03:22:00.635Z,23.15
2018-02-19T03:24:28.076Z,22.30
2018-02-19T03:26:55.505Z,22.45
2018-02-19T03:29:23.741Z,23.77
2018-02-19T03:31:51.172Z,23.58
2018-02-19T03:34:18.614Z,21.58
2018-02-19T03:36:46.050Z,23.27
2018-02-19T03:39:14.288Z,23.17
2018-02-19T03:41:41.725Z,24.50
2018-02-19T03:44:09.201Z,23.05
2018-02-19T03:46:36.658Z,26.30
2018-02-19T03:49:04.119Z,23.25
2018-02-19T03:51:31.569Z,26.35
2018-02-19T03:53:59.027Z,25.12
2018-02-19T03:56:26.482Z,24.05
2018-02-19T03:58:53.939Z,26.17
2018-02-19T04:01:21.382Z,26.10
2018-02-19T04:03:48.854Z,26.37
2018-02-19T04:06:16.305Z,25.20
2018-02-19T04:08:43.749Z,25.33
2018-02-19T04:11:11.208Z,25.30
2018-02-19T04:13:38.652Z,27.27
2018-02-19T04:16:06.090Z,25.50
2018-02-19T04:18:33.530Z,27.85
2018-02-19T04:21:01.737Z,24.70
2018-02-19T04:23:29.169Z,25.43
2018-02-19T04:25:56.602Z,27.00
2018-02-19T04:28:24.813Z,25.77
2018-02-19T04:30:52.301Z,25.52
2018-02-19T04:33:19.750Z,27.25
2018-02-19T04:35:47.213Z,27.05
2018-02-19T04:38:14.678Z,28.08
2018-02-19T04:40:42.130Z,28.55
2018-02-19T04:43:09.560Z,28.35
2018-02-19T04:45:50.028Z,27.05
2018-02-19T04:48:17.506Z,30.62
2018-02-19T04:50:44.954Z,26.33
2018-02-19T04:53:12.409Z,28.00
2018-02-19T04:55:39.974Z,30.60
2018-02-19T04:58:07.413Z,26.98
2018-02-19T05:00:34.966Z,28.45
2018-02-19T05:03:02.447Z,32.53
2018-02-19T05:05:29.886Z,27.37
2018-02-19T05:07:57.349Z,29.90
2018-02-19T05:10:24.783Z,27.55
2018-02-19T05:12:52.381Z,27.62
2018-02-19T05:15:19.822Z,27.17
2018-02-19T05:17:47.260Z,29.07
2018-02-19T05:20:14.735Z,28.23
2018-02-19T05:22:42.287Z,29.07
2018-02-19T05:25:09.771Z,27.20
2018-02-19T05:27:37.314Z,30.00
2018-02-19T05:30:04.752Z,27.67
2018-02-19T05:32:32.251Z,29.27
2018-02-19T05:34:59.690Z,28.00
2018-02-19T05:37:27.143Z,29.92
2018-02-19T05:39:54.586Z,30.08
2018-02-19T05:42:22.026Z,31.57
2018-02-19T05:44:50.335Z,29.00
2018-02-19T05:47:17.882Z,29.40
2018-02-19T05:49:45.354Z,31.05
2018-02-19T05:52:12.791Z,29.67
2018-02-19T05:54:40.221Z,29.55
2018-02-19T05:57:07.659Z,29.25
2018-02-19T05:59:35.931Z,37.88
2018-02-19T06:02:03.309Z,30.20
2018-02-19T06:04:30.737Z,30.85
2018-02-19T06:06:58.957Z,31.45
2018-02-19T06:09:26.396Z,33.35
2018-02-19T06:11:53.827Z,31.77
2018-02-19T06:14:22.059Z,34.83
2018-02-19T06:16:49.502Z,30.30
2018-02-19T06:19:16.970Z,30.25
2018-02-19T06:21:44.423Z,37.25
2018-02-19T06:24:11.865Z,33.10
2018-02-19T06:26:39.298Z,36.92
2018-02-19T06:29:06.784Z,31.87
2018-02-19T06:31:34.304Z,31.35
2018-02-19T06:34:01.811Z,32.58
2018-02-19T06:36:29.241Z,33.65
2018-02-19T06:38:56.694Z,30.83
2018-02-19T06:41:24.204Z,34.90
2018-02-19T06:43:51.650Z,36.17
2018-02-19T06:46:19.173Z,37.03
2018-02-19T06:48:46.606Z,35.63
2018-02-19T06:51:14.084Z,34.58
2018-02-19T06:53:41.544Z,39.78
2018-02-19T06:56:09.019Z,35.78
2018-02-19T06:58:36.506Z,34.28
2018-02-19T07:01:03.952Z,36.05
2018-02-19T07:03:31.473Z,38.33
2018-02-19T07:06:00.078Z,36.60
2018-02-19T07:08:27.526Z,36.05
2018-02-19T07:10:54.958Z,36.90
2018-02-19T07:13:22.415Z,39.45
2018-02-19T07:15:49.858Z,36.13
2018-02-19T07:18:17.302Z,37.53
2018-02-19T07:20:45.511Z,36.70
2018-02-19T07:23:13.900Z,38.80
2018-02-19T07:25:41.365Z,36.92
2018-02-19T07:28:08.928Z,37.97
2018-02-19T07:30:36.395Z,39.05
2018-02-19T07:33:03.875Z,39.85
2018-02-19T07:35:31.360Z,39.35
2018-02-19T07:37:58.846Z,35.05
2018-02-19T07:40:26.324Z,36.67
2018-02-19T07:42:53.863Z,36.78
2018-02-19T07:45:21.331Z,37.97
2018-02-19T07:47:48.807Z,36.80
2018-02-19T07:50:16.610Z,48.97
2018-02-19T07:52:44.895Z,38.53
2018-02-19T07:55:12.351Z,39.90
2018-02-19T07:57:39.782Z,34.75
2018-02-19T08:00:08.003Z,42.10
2018-02-19T08:02:35.490Z,37.20
2018-02-19T08:05:03.866Z,43.17
2018-02-19T08:07:31.407Z,38.90
2018-02-19T08:09:58.859Z,38.95
2018-02-19T08:12:26.363Z,45.38
2018-02-19T08:14:53.870Z,38.25
2018-02-19T08:17:21.423Z,44.03
2018-02-19T08:19:48.859Z,53.35
2018-02-19T08:22:16.298Z,38.65
2018-02-19T08:24:43.810Z,39.53
2018-02-19T08:27:11.270Z,42.95
2018-02-19T08:29:38.784Z,44.38
2018-02-19T08:32:06.215Z,43.40
2018-02-19T08:34:33.651Z,47.62
2018-02-19T08:37:01.868Z,40.75
2018-02-19T08:39:29.325Z,41.73
2018-02-19T08:41:56.754Z,38.65
2018-02-19T08:44:24.357Z,44.47
2018-02-19T08:46:51.790Z,48.00
2018-02-19T08:49:19.227Z,47.72
2018-02-19T08:51:46.735Z,51.45
2018-02-19T08:54:14.202Z,42.10
2018-02-19T08:56:41.658Z,42.70
2018-02-19T08:59:09.117Z,48.78
2018-02-19T09:01:36.560Z,52.28
2018-02-19T09:04:04.014Z,45.63
2018-02-19T09:06:31.498Z,44.55
2018-02-19T09:08:58.947Z,42.40
2018-02-19T09:11:26.404Z,43.92
2018-02-19T09:13:53.919Z,41.03
2018-02-19T09:16:21.359Z,39.22
2018-02-19T09:18:48.913Z,39.92
2018-02-19T09:21:16.328Z,52.13
2018-02-19T09:23:43.782Z,43.83
2018-02-19T09:26:11.359Z,43.45
2018-02-19T09:28:39.682Z,41.65
2018-02-19T09:31:07.124Z,45.12
2018-02-19T09:33:34.578Z,42.90
2018-02-19T09:36:02.175Z,43.10
2018-02-19T09:38:29.645Z,44.70
2018-02-19T09:40:57.366Z,43.78
2018-02-19T09:43:24.792Z,41.53
2018-02-19T09:45:52.247Z,44.30
2018-02-19T09:48:20.470Z,43.35
2018-02-19T09:50:47.906Z,40.10
2018-02-19T09:53:15.346Z,40.67
2018-02-19T09:55:42.792Z,44.55
2018-02-19T09:58:10.998Z,42.33
2018-02-19T10:00:38.462Z,40.03
2018-02-19T10:03:05.889Z,40.97
2018-02-19T10:05:33.378Z,37.75
2018-02-19T10:08:00.806Z,38.40
2018-02-19T10:10:28.261Z,41.63
2018-02-19T10:12:56.478Z,36.13
2018-02-19T10:15:23.948Z,36.17
2018-02-19T10:17:51.389Z,42.67
2018-02-19T10:20:18.857Z,36.95
2018-02-19T10:22:46.306Z,41.85
2018-02-19T10:25:13.787Z,39.22
2018-02-19T10:27:41.213Z,47.33
2018-02-19T10:30:08.662Z,41.65
2018-02-19T10:32:36.114Z,45.17
2018-02-19T10:35:03.594Z,43.20
2018-02-19T10:37:31.064Z,40.25
2018-02-19T10:39:58.502Z,42.13
2018-02-19T10:42:25.954Z,40.25
2018-02-19T10:44:53.401Z,41.00
2018-02-19T10:47:20.838Z,42.42
2018-02-19T10:49:48.278Z,39.80
2018-02-19T10:52:15.969Z,47.47
2018-02-19T10:54:43.401Z,45.55
2018-02-19T10:57:10.845Z,41.03
2018-02-19T10:59:39.085Z,45.28
2018-02-19T11:02:06.659Z,45.05
2018-02-19T11:04:34.202Z,43.55
2018-02-19T11:07:01.858Z,50.03
2018-02-19T11:09:29.308Z,43.50
2018-02-19T11:11:56.795Z,46.00
2018-02-19T11:14:24.243Z,45.12
2018-02-19T11:16:53.196Z,47.85
2018-02-19T11:19:20.629Z,43.42
2018-02-19T11:21:49.126Z,44.50
2018-02-19T11:24:16.612Z,40.78
2018-02-19T11:26:44.055Z,45.05
2018-02-19T11:29:11.515Z,46.10
2018-02-19T11:31:39.053Z,44.25
2018-02-19T11:34:06.499Z,42.88
2018-02-19T11:36:33.967Z,41.92
2018-02-19T11:39:01.413Z,44.25
2018-02-19T11:41:28.847Z,42.97
2018-02-19T11:43:56.475Z,46.90
2018-02-19T11:46:23.947Z,45.90
2018-02-19T11:48:51.461Z,44.10
2018-02-19T11:51:18.937Z,42.90
2018-02-19T11:53:46.410Z,48.40
2018-02-19T11:56:13.886Z,52.20
2018-02-19T11:58:44.252Z,45.42
2018-02-19T12:01:11.695Z,47.03
2018-02-19T12:03:39.163Z,43.60
2018-02-19T12:06:06.680Z,44.28
2018-02-19T12:08:34.075Z,48.58
2018-02-19T12:11:01.534Z,44.72
2018-02-19T12:13:29.080Z,47.75
2018-02-19T12:15:56.947Z,49.22
2018-02-19T12:18:24.402Z,49.70
2018-02-19T12:20:51.912Z,49.72
2018-02-19T12:23:19.346Z,45.42
2018-02-19T12:25:46.809Z,50.42
2018-02-19T12:28:14.254Z,45.20
2018-02-19T12:30:41.702Z,45.03
2018-02-19T12:33:09.256Z,45.55
2018-02-19T12:35:36.702Z,51.03
2018-02-19T12:38:04.188Z,45.30
2018-02-19T12:40:31.635Z,46.83
2018-02-19T12:42:59.084Z,48.05
2018-02-19T12:45:26.635Z,45.30
2018-02-19T12:47:54.071Z,48.78
2018-02-19T12:50:21.576Z,49.10
2018-02-19T12:52:49.104Z,46.47
2018-02-19T12:55:16.602Z,45.85
2018-02-19T12:57:44.035Z,49.87
2018-02-19T13:00:11.486Z,39.72
2018-02-19T13:02:38.918Z,45.00
2018-02-19T13:05:06.422Z,45.20
2018-02-19T13:07:34.047Z,48.25
2018-02-19T13:10:01.473Z,46.28
2018-02-19T13:12:28.982Z,50.33
2018-02-19T13:14:56.431Z,47.90
2018-02-19T13:17:23.878Z,47.90
2018-02-19T13:19:51.430Z,48.25
2018-02-19T13:22:18.901Z,50.08
2018-02-19T13:24:46.344Z,45.75
2018-02-19T13:27:13.784Z,43.33
2018-02-19T13:29:41.220Z,44.85
2018-02-19T13:32:09.446Z,44.67
2018-02-19T13:34:36.987Z,44.28
2018-02-19T13:37:04.651Z,44.15
2018-02-19T13:39:32.132Z,46.75
2018-02-19T13:41:59.666Z,44.30
2018-02-19T13:44:27.116Z,43.80
2018-02-19T13:46:54.697Z,44.63
2018-02-19T13:49:22.134Z,45.05
2018-02-19T13:51:49.586Z,47.85
2018-02-19T13:54:17.082Z,52.75
2018-02-19T13:56:44.532Z,58.30
2018-02-19T13:59:11.996Z,44.42
2018-02-19T14:01:39.552Z,44.08
2018-02-19T14:04:07.010Z,42.85
2018-02-19T14:06:34.479Z,44.03
2018-02-19T14:09:02.060Z,43.22
2018-02-19T14:11:30.269Z,47.55
2018-02-19T14:13:57.828Z,44.42
2018-02-19T14:16:25.317Z,44.05
2018-02-19T14:18:53.695Z,43.30
2018-02-19T14:21:21.149Z,41.88
2018-02-19T14:23:48.729Z,42.47
2018-02-19T14:26:16.174Z,42.95
2018-02-19T14:28:43.624Z,43.15
2018-02-19T14:31:11.056Z,39.33
2018-02-19T14:33:38.542Z,40.88
2018-02-19T14:36:05.987Z,41.88
2018-02-19T14:38:33.550Z,42.53
2018-02-19T14:41:01.110Z,42.75
2018-02-19T14:43:28.566Z,42.97
2018-02-19T14:45:56.191Z,40.78
2018-02-19T14:48:23.631Z,38.47
2018-02-19T14:50:51.098Z,39.20
2018-02-19T14:53:18.662Z,38.13
2018-02-19T14:55:46.124Z,38.85
2018-02-19T14:58:13.583Z,38.53
2018-02-19T15:00:41.050Z,40.67
2018-02-19T15:03:08.491Z,37.70
2018-02-19T15:05:35.937Z,36.58
2018-02-19T15:08:03.405Z,35.67
2018-02-19T15:10:30.857Z,37.10
2018-02-19T15:12:58.312Z,35.72
2018-02-19T15:15:25.749Z,36.67
2018-02-19T15:17:53.963Z,39.42
2018-02-19T15:20:21.395Z,38.45
2018-02-19T15:22:48.862Z,37.13
2018-02-19T15:25:16.327Z,37.78
2018-02-19T15:27:43.791Z,39.47
2018-02-19T15:30:11.248Z,37.58
2018-02-19T15:32:38.784Z,38.10
2018-02-19T15:35:06.202Z,40.83
2018-02-19T15:37:34.474Z,38.83
2018-02-19T15:40:02.814Z,39.67
2018-02-19T15:42:30.234Z,41.25
2018-02-19T15:44:58.090Z,40.67
2018-02-19T15:47:26.289Z,37.97
2018-02-19T15:49:53.743Z,39.70
2018-02-19T15:52:21.186Z,38.00
2018-02-19T15:54:48.629Z,39.25
2018-02-19T15:57:16.821Z,40.85
2018-02-19T15:59:45.034Z,38.65
2018-02-19T16:02:12.489Z,42.38
2018-02-19T16:04:40.734Z,37.78
2018-02-19T16:07:08.499Z,39.40
2018-02-19T16:09:35.921Z,40.17
2018-02-19T16:12:04.233Z,38.20
2018-02-19T16:14:31.676Z,43.53
2018-02-19T16:16:59.871Z,39.45
2018-02-19T16:19:27.322Z,38.83
2018-02-19T16:21:54.775Z,40.40
2018-02-19T16:24:22.240Z,40.22
2018-02-19T16:26:49.706Z,42.77
2018-02-19T16:29:17.135Z,41.75
2018-02-19T16:31:44.609Z,41.35
2018-02-19T16:34:12.057Z,40.30
2018-02-19T16:36:39.492Z,43.95
2018-02-19T16:39:06.923Z,39.72
2018-02-19T16:41:34.410Z,41.25
2018-02-19T16:44:01.863Z,42.42
2018-02-19T16:46:29.377Z,40.28
2018-02-19T16:48:57.238Z,40.03
2018-02-19T16:51:24.688Z,42.30
2018-02-19T16:53:52.126Z,40.72
2018-02-19T16:56:19.607Z,42.45
2018-02-19T16:58:47.058Z,38.40
2018-02-19T17:01:14.512Z,40.47
2018-02-19T17:03:42.043Z,42.10
2018-02-19T17:06:09.462Z,43.28
2018-02-19T17:08:37.711Z,43.55
2018-02-19T17:11:05.234Z,44.65
2018-02-19T17:13:32.671Z,41.25
2018-02-19T17:16:00.247Z,46.17
2018-02-19T17:18:27.762Z,48.72
2018-02-19T17:20:56.015Z,47.05
2018-02-19T17:23:23.472Z,48.78
2018-02-19T17:25:51.047Z,53.10
2018-02-19T17:28:19.259Z,50.00
2018-02-19T17:30:46.712Z,51.20
2018-02-19T17:33:14.215Z,50.17
2018-02-19T17:35:41.658Z,49.33
2018-02-19T17:38:09.141Z,49.50
2018-02-19T17:40:36.585Z,49.47
2018-02-19T17:43:04.071Z,51.22
2018-02-19T17:45:32.307Z,52.10
2018-02-19T17:47:59.756Z,53.40
2018-02-19T17:50:27.185Z,55.13
2018-02-19T17:52:54.651Z,48.70
2018-02-19T17:55:22.090Z,48.47
2018-02-19T17:57:49.602Z,48.63
2018-02-19T18:00:17.070Z,49.33
2018-02-19T18:02:44.509Z,48.80
2018-02-19T18:05:12.190Z,44.70
2018-02-19T18:07:39.697Z,46.72
2018-02-19T18:10:07.313Z,47.03
2018-02-19T18:12:35.660Z,46.17
2018-02-19T18:15:03.610Z,50.65
2018-02-19T18:17:31.069Z,46.92
2018-02-19T18:19:58.529Z,47.90
2018-02-19T18:22:25.982Z,46.15
2018-02-19T18:24:53.419Z,50.95
2018-02-19T18:27:20.890Z,56.67
2018-02-19T18:29:48.338Z,53.45
2018-02-19T18:32:15.780Z,53.85
2018-02-19T18:34:43.235Z,54.13
2018-02-19T18:37:10.685Z,49.73
2018-02-19T18:39:38.878Z,56.45
2018-02-19T18:42:06.349Z,51.80
2018-02-19T18:44:33.795Z,57.28
2018-02-19T18:47:01.254Z,48.40
2018-02-19T18:49:28.704Z,46.80
2018-02-19T18:51:56.175Z,48.47
2018-02-19T18:54:23.610Z,48.53
2018-02-19T18:56:51.179Z,50.67
2018-02-19T18:59:18.594Z,55.60
2018-02-19T19:01:46.802Z,45.35
2018-02-19T19:04:14.369Z,50.35
2018-02-19T19:06:41.797Z,46.30
2018-02-19T19:09:20.991Z,51.60
2018-02-19T19:11:48.443Z,49.53
2018-02-19T19:14:15.896Z,45.58
2018-02-19T19:16:43.330Z,48.40
2018-02-19T19:19:10.761Z,47.45
2018-02-19T19:21:38.203Z,54.58
2018-02-19T19:24:06.414Z,53.40
2018-02-19T19:26:33.869Z,47.70
2018-02-19T19:29:01.305Z,51.90
2018-02-19T19:31:28.750Z,50.88
2018-02-19T19:33:56.942Z,52.35
2018-02-19T19:36:24.389Z,49.15
2018-02-19T19:38:51.820Z,54.05
2018-02-19T19:41:20.030Z,50.35
2018-02-19T19:43:47.458Z,47.70
2018-02-19T19:46:15.673Z,50.72
2018-02-19T19:48:43.102Z,50.10
2018-02-19T19:51:10.557Z,48.95
2018-02-19T19:53:37.993Z,51.67
2018-02-19T19:56:05.453Z,48.03
2018-02-19T19:58:33.660Z,56.53
2018-02-19T20:01:01.106Z,46.83
2018-02-19T20:03:28.607Z,54.35
2018-02-19T20:05:56.037Z,50.83
2018-02-19T20:08:23.487Z,49.63
2018-02-19T20:10:50.914Z,55.15
2018-02-19T20:13:19.182Z,58.50
2018-02-19T20:15:46.565Z,48.47
2018-02-19T20:18:14.002Z,49.08
2018-02-19T20:20:41.442Z,49.45
2018-02-19T20:23:09.738Z,49.83
2018-02-19T20:25:37.168Z,48.17
2018-02-19T20:28:04.623Z,49.65
2018-02-19T20:30:32.070Z,51.72
2018-02-19T20:32:59.490Z,56.92
2018-02-19T20:35:26.914Z,58.87
2018-02-19T20:37:55.153Z,55.47
2018-02-19T20:40:22.578Z,49.63
2018-02-19T20:42:50.018Z,49.08
2018-02-19T20:45:17.449Z,48.07
2018-02-19T20:47:45.657Z,48.00
2018-02-19T20:50:13.097Z,49.40
2018-02-19T20:52:41.306Z,48.85
2018-02-19T20:55:08.797Z,46.92
2018-02-19T20:57:36.196Z,48.47
2018-02-19T21:00:03.634Z,49.30
2018-02-19T21:02:31.079Z,49.33
2018-02-19T21:04:59.275Z,48.25
2018-02-19T21:07:26.733Z,51.05
2018-02-19T21:09:54.172Z,53.53
2018-02-19T21:12:21.609Z,46.72
2018-02-19T21:14:49.818Z,54.45
2018-02-19T21:17:17.979Z,48.45
2018-02-19T21:19:45.416Z,54.40
2018-02-19T21:22:13.618Z,48.25
2018-02-19T21:24:41.050Z,52.20
2018-02-19T21:27:09.255Z,49.47
2018-02-19T21:29:36.734Z,49.90
2018-02-19T21:32:04.213Z,50.58
2018-02-19T21:34:31.664Z,52.35
2018-02-19T21:36:59.110Z,52.17
2018-02-19T21:39:26.555Z,52.50
2018-02-19T21:41:53.994Z,53.53
2018-02-19T21:44:21.429Z,48.87
2018-02-19T21:46:48.870Z,51.90
2018-02-19T21:49:16.314Z,48.55
2018-02-19T21:51:43.752Z,50.08
2018-02-19T21:54:11.187Z,50.63
2018-02-19T21:56:38.613Z,52.58
2018-02-19T21:59:06.041Z,54.00
2018-02-19T22:01:34.259Z,52.15
2018-02-19T22:04:01.715Z,53.45
2018-02-19T22:06:29.172Z,51.13
2018-02-19T22:08:56.585Z,52.62
2018-02-19T22:11:24.794Z,51.10
2018-02-19T22:13:52.226Z,52.67
2018-02-19T22:16:20.426Z,56.22
2018-02-19T22:18:47.853Z,53.90
2018-02-19T22:21:16.070Z,55.95
2018-02-19T22:23:43.510Z,55.72
2018-02-19T22:26:10.947Z,50.47
2018-02-19T22:28:39.249Z,54.78
2018-02-19T22:31:06.677Z,52.17
2018-02-19T22:33:34.881Z,54.92
2018-02-19T22:36:02.322Z,56.97
2018-02-19T22:38:29.775Z,53.13
2018-02-19T22:40:57.223Z,60.85
2018-02-19T22:43:25.425Z,53.05
2018-02-19T22:45:52.910Z,53.55
2018-02-19T22:48:20.466Z,50.90
2018-02-19T22:50:47.905Z,53.45
2018-02-19T22:53:15.374Z,52.97
2018-02-19T22:55:42.794Z,50.30
2018-02-19T22:58:10.277Z,50.87
2018-02-19T23:00:37.700Z,53.95
2018-02-19T23:03:05.130Z,52.15
2018-02-19T23:05:33.334Z,51.70
2018-02-19T23:08:00.866Z,50.53
2018-02-19T23:10:29.149Z,48.20
2018-02-19T23:12:57.431Z,54.63
2018-02-19T23:15:24.947Z,58.60
2018-02-19T23:17:52.399Z,54.47
2018-02-19T23:20:19.843Z,54.72
2018-02-19T23:22:47.301Z,55.08
2018-02-19T23:25:14.728Z,59.85
2018-02-19T23:27:42.215Z,58.83
2018-02-19T23:30:09.651Z,56.65
2018-02-19T23:32:37.129Z,50.60
2018-02-19T23:35:04.575Z,53.25
2018-02-19T23:37:32.014Z,54.35
2018-02-19T23:39:59.493Z,53.70
2018-02-19T23:42:26.962Z,57.53
2018-02-19T23:44:54.367Z,57.30
2018-02-19T23:47:21.798Z,53.63
2018-02-19T23:49:49.992Z,53.10
2018-02-19T23:52:17.438Z,56.35
2018-02-19T23:54:45.666Z,55.60
2018-02-19T23:57:13.130Z,58.92
2018-02-19T23:59:40.578Z,53.15
